sensor_id;sensor_type;location;lat;lon;timestamp;temperature;humidity
7167;DHT22;3625;51.762;14.320;2024-01-15T00:01:45;2.20;99.90
7167;DHT22;3625;51.762;14.320;2024-01-15T00:04:15;2.30;99.90
7167;DHT22;3625;51.762;14.320;2024-01-15T00:06:44;2.30;99.90
7167;DHT22;3625;51.762;14.320;2024-01-15T00:09:14;2.20;99.90
7167;DHT22;3625;51.762;14.320;2024-01-15T00:11:44;2.20;99.90
7167;DHT22;3625;51.762;14.320;2024-01-15T00:14:13;2.30;99.90
7167;DHT22;3625;51.762;14.320;2024-01-15T00:16:47;2.20;99.90
7167;DHT22;3625;51.762;14.320;2024-01-15T00:19:18;2.20;99.90
7167;DHT22;3625;51.762;14.320;2024-01-15T00:21:47;2.20;99.90
7167;DHT22;3625;51.762;14.320;2024-01-15T00:24:18;2.30;99.90
7167;DHT22;3625;51.762;14.320;2024-01-15T00:26:49;2.30;99.90
7167;DHT22;3625;51.762;14.320;2024-01-15T00:29:17;2.20;99.90
7167;DHT22;3625;51.762;14.320;2024-01-15T00:31:46;2.20;99.90
7167;DHT22;3625;51.762;14.320;2024-01-15T00:34:15;2.30;99.90
7167;DHT22;3625;51.762;14.320;2024-01-15T00:39:13;2.20;99.90
7167;DHT22;3625;51.762;14.320;2024-01-15T00:41:43;2.20;99.90
7167;DHT22;3625;51.762;14.320;2024-01-15T00:44:12;2.20;99.90
7167;DHT22;3625;51.762;14.320;2024-01-15T00:46:44;2.20;99.90
7167;DHT22;3625;51.762;14.320;2024-01-15T00:49:14;2.20;99.90
7167;DHT22;3625;51.762;14.320;2024-01-15T00:51:43;2.20;99.90
7167;DHT22;3625;51.762;14.320;2024-01-15T00:54:12;2.30;99.90
7167;DHT22;3625;51.762;14.320;2024-01-15T00:56:41;2.30;99.90
7167;DHT22;3625;51.762;14.320;2024-01-15T00:59:11;2.30;99.90
7167;DHT22;3625;51.762;14.320;2024-01-15T01:01:43;2.30;99.90
7167;DHT22;3625;51.762;14.320;2024-01-15T01:04:13;2.30;99.90
7167;DHT22;3625;51.762;14.320;2024-01-15T01:06:42;2.30;99.90
7167;DHT22;3625;51.762;14.320;2024-01-15T01:09:11;2.30;99.90
7167;DHT22;3625;51.762;14.320;2024-01-15T01:11:39;2.30;99.90
7167;DHT22;3625;51.762;14.320;2024-01-15T01:14:09;2.30;99.90
7167;DHT22;3625;51.762;14.320;2024-01-15T01:16:38;2.30;99.90
7167;DHT22;3625;51.762;14.320;2024-01-15T01:19:07;2.30;99.90
7167;DHT22;3625;51.762;14.320;2024-01-15T01:21:35;2.30;99.90
7167;DHT22;3625;51.762;14.320;2024-01-15T01:24:04;2.20;99.90
7167;DHT22;3625;51.762;14.320;2024-01-15T01:26:33;2.20;99.90
7167;DHT22;3625;51.762;14.320;2024-01-15T01:29:02;2.40;99.90
7167;DHT22;3625;51.762;14.320;2024-01-15T01:31:32;2.30;99.90
7167;DHT22;3625;51.762;14.320;2024-01-15T01:34:00;2.30;99.90
7167;DHT22;3625;51.762;14.320;2024-01-15T01:36:31;2.20;99.90
7167;DHT22;3625;51.762;14.320;2024-01-15T01:41:29;2.30;99.90
7167;DHT22;3625;51.762;14.320;2024-01-15T01:43:57;2.20;99.90
7167;DHT22;3625;51.762;14.320;2024-01-15T01:46:27;2.30;99.90
7167;DHT22;3625;51.762;14.320;2024-01-15T01:48:58;2.30;99.90
7167;DHT22;3625;51.762;14.320;2024-01-15T01:51:33;2.30;99.90
7167;DHT22;3625;51.762;14.320;2024-01-15T01:54:04;2.20;99.90
7167;DHT22;3625;51.762;14.320;2024-01-15T01:56:35;2.20;99.90
7167;DHT22;3625;51.762;14.320;2024-01-15T01:59:04;2.10;99.90
7167;DHT22;3625;51.762;14.320;2024-01-15T02:01:35;2.10;99.90
7167;DHT22;3625;51.762;14.320;2024-01-15T02:04:06;2.20;99.90
7167;DHT22;3625;51.762;14.320;2024-01-15T02:06:35;2.20;99.90
7167;DHT22;3625;51.762;14.320;2024-01-15T02:09:04;2.20;99.90
7167;DHT22;3625;51.762;14.320;2024-01-15T02:11:33;2.20;99.90
7167;DHT22;3625;51.762;14.320;2024-01-15T02:14:02;2.20;99.90
7167;DHT22;3625;51.762;14.320;2024-01-15T02:16:31;2.20;99.90
7167;DHT22;3625;51.762;14.320;2024-01-15T02:19:00;2.20;99.90
7167;DHT22;3625;51.762;14.320;2024-01-15T02:21:30;2.10;99.90
7167;DHT22;3625;51.762;14.320;2024-01-15T02:24:00;2.20;99.90
7167;DHT22;3625;51.762;14.320;2024-01-15T02:29:03;2.10;99.90
7167;DHT22;3625;51.762;14.320;2024-01-15T02:31:35;2.00;99.90
7167;DHT22;3625;51.762;14.320;2024-01-15T02:34:05;2.10;99.90
7167;DHT22;3625;51.762;14.320;2024-01-15T02:36:33;2.10;99.90
7167;DHT22;3625;51.762;14.320;2024-01-15T02:39:03;2.20;99.90
7167;DHT22;3625;51.762;14.320;2024-01-15T02:41:32;2.10;99.90
7167;DHT22;3625;51.762;14.320;2024-01-15T02:44:01;2.10;99.90
7167;DHT22;3625;51.762;14.320;2024-01-15T02:46:29;2.10;99.90
7167;DHT22;3625;51.762;14.320;2024-01-15T02:48:58;2.00;99.90
7167;DHT22;3625;51.762;14.320;2024-01-15T02:51:27;2.10;99.90
7167;DHT22;3625;51.762;14.320;2024-01-15T02:53:55;2.10;99.90
7167;DHT22;3625;51.762;14.320;2024-01-15T02:56:25;2.00;99.90
7167;DHT22;3625;51.762;14.320;2024-01-15T02:58:54;2.00;99.90
7167;DHT22;3625;51.762;14.320;2024-01-15T03:01:23;1.80;99.90
7167;DHT22;3625;51.762;14.320;2024-01-15T03:03:51;1.60;99.90
7167;DHT22;3625;51.762;14.320;2024-01-15T03:06:22;1.70;99.90
7167;DHT22;3625;51.762;14.320;2024-01-15T03:08:51;1.50;99.90
7167;DHT22;3625;51.762;14.320;2024-01-15T03:11:19;1.50;99.90
7167;DHT22;3625;51.762;14.320;2024-01-15T03:13:49;1.40;99.90
7167;DHT22;3625;51.762;14.320;2024-01-15T03:16:18;1.40;99.90
7167;DHT22;3625;51.762;14.320;2024-01-15T03:18:47;1.30;99.90
7167;DHT22;3625;51.762;14.320;2024-01-15T03:21:16;1.40;99.90
7167;DHT22;3625;51.762;14.320;2024-01-15T03:23:44;1.40;99.90
7167;DHT22;3625;51.762;14.320;2024-01-15T03:26:13;1.40;99.90
7167;DHT22;3625;51.762;14.320;2024-01-15T03:28:42;1.50;99.90
7167;DHT22;3625;51.762;14.320;2024-01-15T03:31:12;1.50;99.90
7167;DHT22;3625;51.762;14.320;2024-01-15T03:33:41;1.90;99.90
7167;DHT22;3625;51.762;14.320;2024-01-15T03:36:10;1.50;99.90
7167;DHT22;3625;51.762;14.320;2024-01-15T03:38:40;1.40;99.90
7167;DHT22;3625;51.762;14.320;2024-01-15T03:41:10;1.50;99.90
7167;DHT22;3625;51.762;14.320;2024-01-15T03:43:38;1.50;99.90
7167;DHT22;3625;51.762;14.320;2024-01-15T03:46:07;1.40;99.90
7167;DHT22;3625;51.762;14.320;2024-01-15T03:48:37;1.40;99.90
7167;DHT22;3625;51.762;14.320;2024-01-15T03:51:06;1.40;99.90
7167;DHT22;3625;51.762;14.320;2024-01-15T03:53:34;1.40;99.90
7167;DHT22;3625;51.762;14.320;2024-01-15T03:56:03;1.40;99.90
7167;DHT22;3625;51.762;14.320;2024-01-15T03:58:32;1.50;99.90
7167;DHT22;3625;51.762;14.320;2024-01-15T04:01:01;1.50;99.90
7167;DHT22;3625;51.762;14.320;2024-01-15T04:03:30;1.50;99.90
7167;DHT22;3625;51.762;14.320;2024-01-15T04:06:00;1.50;99.90
7167;DHT22;3625;51.762;14.320;2024-01-15T04:08:29;1.40;99.90
7167;DHT22;3625;51.762;14.320;2024-01-15T04:10:58;1.40;99.90
7167;DHT22;3625;51.762;14.320;2024-01-15T04:15:55;1.40;99.90
7167;DHT22;3625;51.762;14.320;2024-01-15T04:18:24;1.30;99.90
7167;DHT22;3625;51.762;14.320;2024-01-15T04:20:52;1.30;99.90
7167;DHT22;3625;51.762;14.320;2024-01-15T04:23:22;1.30;99.90
7167;DHT22;3625;51.762;14.320;2024-01-15T04:25:51;1.30;99.90
7167;DHT22;3625;51.762;14.320;2024-01-15T04:33:17;1.20;99.90
7167;DHT22;3625;51.762;14.320;2024-01-15T04:40:45;1.00;99.90
7167;DHT22;3625;51.762;14.320;2024-01-15T04:43:14;1.10;99.90
7167;DHT22;3625;51.762;14.320;2024-01-15T04:45:43;1.20;99.90
7167;DHT22;3625;51.762;14.320;2024-01-15T04:48:11;1.30;99.90
7167;DHT22;3625;51.762;14.320;2024-01-15T04:50:40;1.30;99.90
7167;DHT22;3625;51.762;14.320;2024-01-15T04:53:09;1.50;99.90
7167;DHT22;3625;51.762;14.320;2024-01-15T04:55:39;1.40;99.90
7167;DHT22;3625;51.762;14.320;2024-01-15T04:58:09;1.50;99.90
7167;DHT22;3625;51.762;14.320;2024-01-15T05:00:38;1.50;99.90
7167;DHT22;3625;51.762;14.320;2024-01-15T05:03:06;1.50;99.90
7167;DHT22;3625;51.762;14.320;2024-01-15T05:05:35;1.50;99.90
7167;DHT22;3625;51.762;14.320;2024-01-15T05:08:04;1.50;99.90
7167;DHT22;3625;51.762;14.320;2024-01-15T05:10:33;1.50;99.90
7167;DHT22;3625;51.762;14.320;2024-01-15T05:13:02;1.40;99.90
7167;DHT22;3625;51.762;14.320;2024-01-15T05:15:32;1.40;99.90
7167;DHT22;3625;51.762;14.320;2024-01-15T05:18:01;1.30;99.90
7167;DHT22;3625;51.762;14.320;2024-01-15T05:20:30;1.40;99.90
7167;DHT22;3625;51.762;14.320;2024-01-15T05:22:59;1.40;99.90
7167;DHT22;3625;51.762;14.320;2024-01-15T05:25:27;1.40;99.90
7167;DHT22;3625;51.762;14.320;2024-01-15T05:27:56;1.40;99.90
7167;DHT22;3625;51.762;14.320;2024-01-15T05:30:24;1.50;99.90
7167;DHT22;3625;51.762;14.320;2024-01-15T05:32:55;1.50;99.90
7167;DHT22;3625;51.762;14.320;2024-01-15T05:35:24;1.50;99.90
7167;DHT22;3625;51.762;14.320;2024-01-15T05:37:53;1.60;99.90
7167;DHT22;3625;51.762;14.320;2024-01-15T05:40:21;1.60;99.90
7167;DHT22;3625;51.762;14.320;2024-01-15T05:42:50;1.70;99.90
7167;DHT22;3625;51.762;14.320;2024-01-15T05:45:19;1.70;99.90
7167;DHT22;3625;51.762;14.320;2024-01-15T05:47:47;1.70;99.90
7167;DHT22;3625;51.762;14.320;2024-01-15T05:50:17;1.70;99.90
7167;DHT22;3625;51.762;14.320;2024-01-15T05:52:46;1.70;99.90
7167;DHT22;3625;51.762;14.320;2024-01-15T05:55:18;1.70;99.90
7167;DHT22;3625;51.762;14.320;2024-01-15T05:57:47;1.70;99.90
7167;DHT22;3625;51.762;14.320;2024-01-15T06:00:16;1.70;99.90
7167;DHT22;3625;51.762;14.320;2024-01-15T06:02:45;1.70;99.90
7167;DHT22;3625;51.762;14.320;2024-01-15T06:05:14;1.80;99.90
7167;DHT22;3625;51.762;14.320;2024-01-15T06:07:44;1.70;99.90
7167;DHT22;3625;51.762;14.320;2024-01-15T06:10:13;1.70;99.90
7167;DHT22;3625;51.762;14.320;2024-01-15T06:12:43;1.70;99.90
7167;DHT22;3625;51.762;14.320;2024-01-15T06:15:12;1.70;99.90
7167;DHT22;3625;51.762;14.320;2024-01-15T06:17:41;1.70;99.90
7167;DHT22;3625;51.762;14.320;2024-01-15T06:20:11;1.70;99.90
7167;DHT22;3625;51.762;14.320;2024-01-15T06:22:41;1.70;99.90
7167;DHT22;3625;51.762;14.320;2024-01-15T06:25:11;1.70;99.90
7167;DHT22;3625;51.762;14.320;2024-01-15T06:27:40;1.70;99.90
7167;DHT22;3625;51.762;14.320;2024-01-15T06:30:10;1.60;99.90
7167;DHT22;3625;51.762;14.320;2024-01-15T06:32:39;1.60;99.90
7167;DHT22;3625;51.762;14.320;2024-01-15T06:35:08;1.60;99.90
7167;DHT22;3625;51.762;14.320;2024-01-15T06:37:38;1.60;99.90
7167;DHT22;3625;51.762;14.320;2024-01-15T06:40:08;1.60;99.90
7167;DHT22;3625;51.762;14.320;2024-01-15T06:42:38;1.60;99.90
7167;DHT22;3625;51.762;14.320;2024-01-15T06:45:21;1.60;99.90
7167;DHT22;3625;51.762;14.320;2024-01-15T06:47:49;1.60;99.90
7167;DHT22;3625;51.762;14.320;2024-01-15T06:50:18;1.60;99.90
7167;DHT22;3625;51.762;14.320;2024-01-15T06:52:46;1.60;99.90
7167;DHT22;3625;51.762;14.320;2024-01-15T06:55:15;1.60;99.90
7167;DHT22;3625;51.762;14.320;2024-01-15T06:57:45;1.60;99.90
7167;DHT22;3625;51.762;14.320;2024-01-15T07:00:15;1.60;99.90
7167;DHT22;3625;51.762;14.320;2024-01-15T07:02:46;1.60;99.90
7167;DHT22;3625;51.762;14.320;2024-01-15T07:05:15;1.50;99.90
7167;DHT22;3625;51.762;14.320;2024-01-15T07:07:44;1.50;99.90
7167;DHT22;3625;51.762;14.320;2024-01-15T07:10:13;1.60;99.90
7167;DHT22;3625;51.762;14.320;2024-01-15T07:12:42;1.60;99.90
7167;DHT22;3625;51.762;14.320;2024-01-15T07:15:12;1.60;99.90
7167;DHT22;3625;51.762;14.320;2024-01-15T07:17:41;1.60;99.90
7167;DHT22;3625;51.762;14.320;2024-01-15T07:20:11;1.60;99.90
7167;DHT22;3625;51.762;14.320;2024-01-15T07:22:40;1.70;99.90
7167;DHT22;3625;51.762;14.320;2024-01-15T07:25:09;1.70;99.90
7167;DHT22;3625;51.762;14.320;2024-01-15T07:27:39;1.80;99.90
7167;DHT22;3625;51.762;14.320;2024-01-15T07:30:13;2.00;99.90
7167;DHT22;3625;51.762;14.320;2024-01-15T07:32:42;1.90;99.90
7167;DHT22;3625;51.762;14.320;2024-01-15T07:35:11;1.90;99.90
7167;DHT22;3625;51.762;14.320;2024-01-15T07:37:40;2.00;99.90
7167;DHT22;3625;51.762;14.320;2024-01-15T07:40:10;2.00;1.20
7167;DHT22;3625;51.762;14.320;2024-01-15T07:42:39;2.10;1.00
7167;DHT22;3625;51.762;14.320;2024-01-15T07:45:12;2.20;99.90
7167;DHT22;3625;51.762;14.320;2024-01-15T07:47:40;2.10;1.00
7167;DHT22;3625;51.762;14.320;2024-01-15T07:50:09;2.20;1.00
7167;DHT22;3625;51.762;14.320;2024-01-15T07:52:39;2.20;1.00
7167;DHT22;3625;51.762;14.320;2024-01-15T07:55:08;2.20;99.90
7167;DHT22;3625;51.762;14.320;2024-01-15T07:57:37;2.20;99.90
7167;DHT22;3625;51.762;14.320;2024-01-15T08:00:07;2.20;99.90
7167;DHT22;3625;51.762;14.320;2024-01-15T08:02:38;2.20;1.00
7167;DHT22;3625;51.762;14.320;2024-01-15T08:05:07;2.20;99.90
7167;DHT22;3625;51.762;14.320;2024-01-15T08:07:36;2.20;99.90
7167;DHT22;3625;51.762;14.320;2024-01-15T08:10:05;2.30;99.90
7167;DHT22;3625;51.762;14.320;2024-01-15T08:12:34;2.30;99.90
7167;DHT22;3625;51.762;14.320;2024-01-15T08:15:04;2.30;1.00
7167;DHT22;3625;51.762;14.320;2024-01-15T08:17:33;2.20;99.90
7167;DHT22;3625;51.762;14.320;2024-01-15T08:20:04;2.30;99.90
7167;DHT22;3625;51.762;14.320;2024-01-15T08:22:33;2.20;99.90
7167;DHT22;3625;51.762;14.320;2024-01-15T08:25:02;2.30;99.90
7167;DHT22;3625;51.762;14.320;2024-01-15T08:27:31;2.50;1.00
7167;DHT22;3625;51.762;14.320;2024-01-15T08:29:59;2.50;99.90
7167;DHT22;3625;51.762;14.320;2024-01-15T08:32:28;2.60;99.90
7167;DHT22;3625;51.762;14.320;2024-01-15T08:34:56;2.70;1.00
7167;DHT22;3625;51.762;14.320;2024-01-15T08:37:27;2.90;99.90
7167;DHT22;3625;51.762;14.320;2024-01-15T08:39:55;2.90;38.20
7167;DHT22;3625;51.762;14.320;2024-01-15T08:42:24;2.90;99.90
7167;DHT22;3625;51.762;14.320;2024-01-15T08:44:53;2.90;99.90
7167;DHT22;3625;51.762;14.320;2024-01-15T08:47:21;2.90;99.90
7167;DHT22;3625;51.762;14.320;2024-01-15T08:49:50;2.90;99.90
7167;DHT22;3625;51.762;14.320;2024-01-15T08:52:18;3.10;99.90
7167;DHT22;3625;51.762;14.320;2024-01-15T08:54:48;3.00;99.90
7167;DHT22;3625;51.762;14.320;2024-01-15T08:57:17;2.70;99.90
7167;DHT22;3625;51.762;14.320;2024-01-15T08:59:46;2.60;1.00
7167;DHT22;3625;51.762;14.320;2024-01-15T09:02:14;2.80;1.00
7167;DHT22;3625;51.762;14.320;2024-01-15T09:04:43;3.10;99.90
7167;DHT22;3625;51.762;14.320;2024-01-15T09:07:12;3.30;99.90
7167;DHT22;3625;51.762;14.320;2024-01-15T09:09:41;3.40;99.90
7167;DHT22;3625;51.762;14.320;2024-01-15T09:12:11;3.30;99.90
7167;DHT22;3625;51.762;14.320;2024-01-15T09:14:42;3.40;99.90
7167;DHT22;3625;51.762;14.320;2024-01-15T09:17:11;3.30;99.90
7167;DHT22;3625;51.762;14.320;2024-01-15T09:19:40;3.20;99.90
7167;DHT22;3625;51.762;14.320;2024-01-15T09:22:09;2.80;99.90
7167;DHT22;3625;51.762;14.320;2024-01-15T09:24:37;2.70;99.90
7167;DHT22;3625;51.762;14.320;2024-01-15T09:27:08;2.60;99.90
7167;DHT22;3625;51.762;14.320;2024-01-15T09:29:38;3.50;99.90
7167;DHT22;3625;51.762;14.320;2024-01-15T09:32:09;3.50;99.90
7167;DHT22;3625;51.762;14.320;2024-01-15T09:34:37;3.40;99.90
7167;DHT22;3625;51.762;14.320;2024-01-15T09:37:06;3.30;99.90
7167;DHT22;3625;51.762;14.320;2024-01-15T09:39:36;3.10;99.90
7167;DHT22;3625;51.762;14.320;2024-01-15T09:42:05;2.90;99.90
7167;DHT22;3625;51.762;14.320;2024-01-15T09:44:35;2.60;99.90
7167;DHT22;3625;51.762;14.320;2024-01-15T09:47:06;2.70;99.90
7167;DHT22;3625;51.762;14.320;2024-01-15T09:49:35;2.80;99.90
7167;DHT22;3625;51.762;14.320;2024-01-15T09:52:06;2.70;99.90
7167;DHT22;3625;51.762;14.320;2024-01-15T09:54:38;2.80;99.90
7167;DHT22;3625;51.762;14.320;2024-01-15T09:57:07;3.00;99.90
7167;DHT22;3625;51.762;14.320;2024-01-15T09:59:36;3.20;99.90
7167;DHT22;3625;51.762;14.320;2024-01-15T10:02:08;3.40;99.90
7167;DHT22;3625;51.762;14.320;2024-01-15T10:04:44;3.50;99.90
7167;DHT22;3625;51.762;14.320;2024-01-15T10:07:15;3.50;99.90
7167;DHT22;3625;51.762;14.320;2024-01-15T10:09:46;3.50;99.90
7167;DHT22;3625;51.762;14.320;2024-01-15T10:12:15;3.60;99.90
7167;DHT22;3625;51.762;14.320;2024-01-15T10:14:44;3.50;99.90
7167;DHT22;3625;51.762;14.320;2024-01-15T10:17:14;3.50;99.90
7167;DHT22;3625;51.762;14.320;2024-01-15T10:19:45;3.60;99.90
7167;DHT22;3625;51.762;14.320;2024-01-15T10:22:16;3.40;99.90
7167;DHT22;3625;51.762;14.320;2024-01-15T10:24:46;3.40;99.90
7167;DHT22;3625;51.762;14.320;2024-01-15T10:27:16;3.40;99.90
7167;DHT22;3625;51.762;14.320;2024-01-15T10:29:44;3.40;99.90
7167;DHT22;3625;51.762;14.320;2024-01-15T10:32:14;3.50;99.90
7167;DHT22;3625;51.762;14.320;2024-01-15T10:34:43;3.60;99.90
7167;DHT22;3625;51.762;14.320;2024-01-15T10:37:12;3.80;99.90
7167;DHT22;3625;51.762;14.320;2024-01-15T10:39:41;3.70;99.90
7167;DHT22;3625;51.762;14.320;2024-01-15T10:42:10;3.70;99.90
7167;DHT22;3625;51.762;14.320;2024-01-15T10:44:38;3.70;99.90
7167;DHT22;3625;51.762;14.320;2024-01-15T10:47:07;3.80;99.90
7167;DHT22;3625;51.762;14.320;2024-01-15T10:49:37;3.80;99.90
7167;DHT22;3625;51.762;14.320;2024-01-15T10:52:06;3.80;99.90
7167;DHT22;3625;51.762;14.320;2024-01-15T10:54:37;3.90;99.90
7167;DHT22;3625;51.762;14.320;2024-01-15T10:57:07;4.00;99.90
7167;DHT22;3625;51.762;14.320;2024-01-15T10:59:36;3.90;99.90
7167;DHT22;3625;51.762;14.320;2024-01-15T11:02:05;3.90;99.90
7167;DHT22;3625;51.762;14.320;2024-01-15T11:04:34;3.90;99.90
7167;DHT22;3625;51.762;14.320;2024-01-15T11:07:05;3.80;99.90
7167;DHT22;3625;51.762;14.320;2024-01-15T11:09:35;3.80;99.90
7167;DHT22;3625;51.762;14.320;2024-01-15T11:12:09;3.80;99.90
7167;DHT22;3625;51.762;14.320;2024-01-15T11:14:39;3.70;99.90
7167;DHT22;3625;51.762;14.320;2024-01-15T11:17:12;4.00;99.90
7167;DHT22;3625;51.762;14.320;2024-01-15T11:19:44;4.00;99.90
7167;DHT22;3625;51.762;14.320;2024-01-15T11:22:49;3.80;99.90
7167;DHT22;3625;51.762;14.320;2024-01-15T11:25:19;3.70;99.90
7167;DHT22;3625;51.762;14.320;2024-01-15T11:27:49;3.50;99.90
7167;DHT22;3625;51.762;14.320;2024-01-15T11:30:20;3.20;99.90
7167;DHT22;3625;51.762;14.320;2024-01-15T11:32:53;3.10;99.90
7167;DHT22;3625;51.762;14.320;2024-01-15T11:35:22;2.90;99.90
7167;DHT22;3625;51.762;14.320;2024-01-15T11:37:59;3.00;99.90
7167;DHT22;3625;51.762;14.320;2024-01-15T11:40:38;3.00;99.90
7167;DHT22;3625;51.762;14.320;2024-01-15T11:43:10;2.90;99.90
7167;DHT22;3625;51.762;14.320;2024-01-15T11:45:40;2.90;99.90
7167;DHT22;3625;51.762;14.320;2024-01-15T11:48:11;2.90;99.90
7167;DHT22;3625;51.762;14.320;2024-01-15T11:50:44;2.90;99.90
7167;DHT22;3625;51.762;14.320;2024-01-15T11:53:33;2.70;99.90
7167;DHT22;3625;51.762;14.320;2024-01-15T11:56:11;2.90;99.90
7167;DHT22;3625;51.762;14.320;2024-01-15T11:58:44;3.00;99.90
7167;DHT22;3625;51.762;14.320;2024-01-15T12:01:12;3.10;99.90
7167;DHT22;3625;51.762;14.320;2024-01-15T12:03:41;3.30;99.90
7167;DHT22;3625;51.762;14.320;2024-01-15T12:06:12;3.50;99.90
7167;DHT22;3625;51.762;14.320;2024-01-15T12:08:43;3.50;99.90
7167;DHT22;3625;51.762;14.320;2024-01-15T12:11:14;3.50;99.90
7167;DHT22;3625;51.762;14.320;2024-01-15T12:13:47;3.30;99.90
7167;DHT22;3625;51.762;14.320;2024-01-15T12:16:15;3.40;99.90
7167;DHT22;3625;51.762;14.320;2024-01-15T12:18:44;3.40;99.90
7167;DHT22;3625;51.762;14.320;2024-01-15T12:21:13;3.40;99.90
7167;DHT22;3625;51.762;14.320;2024-01-15T12:23:46;3.50;99.90
7167;DHT22;3625;51.762;14.320;2024-01-15T12:26:15;3.50;99.90
7167;DHT22;3625;51.762;14.320;2024-01-15T12:28:44;3.40;99.90
7167;DHT22;3625;51.762;14.320;2024-01-15T12:31:13;3.40;99.90
7167;DHT22;3625;51.762;14.320;2024-01-15T12:33:42;3.50;99.90
7167;DHT22;3625;51.762;14.320;2024-01-15T12:36:13;3.60;99.90
7167;DHT22;3625;51.762;14.320;2024-01-15T12:38:43;3.50;99.90
7167;DHT22;3625;51.762;14.320;2024-01-15T12:41:15;3.50;99.90
7167;DHT22;3625;51.762;14.320;2024-01-15T12:43:44;4.00;99.90
7167;DHT22;3625;51.762;14.320;2024-01-15T12:46:12;3.30;99.90
7167;DHT22;3625;51.762;14.320;2024-01-15T12:48:43;3.20;99.90
7167;DHT22;3625;51.762;14.320;2024-01-15T12:51:12;3.20;99.90
7167;DHT22;3625;51.762;14.320;2024-01-15T12:53:40;3.30;99.90
7167;DHT22;3625;51.762;14.320;2024-01-15T12:56:11;3.20;99.90
7167;DHT22;3625;51.762;14.320;2024-01-15T12:58:39;3.30;99.90
7167;DHT22;3625;51.762;14.320;2024-01-15T13:01:08;3.50;99.90
7167;DHT22;3625;51.762;14.320;2024-01-15T13:03:37;3.50;99.90
7167;DHT22;3625;51.762;14.320;2024-01-15T13:06:06;3.30;99.90
7167;DHT22;3625;51.762;14.320;2024-01-15T13:08:35;3.20;99.90
7167;DHT22;3625;51.762;14.320;2024-01-15T13:11:04;2.80;99.90
7167;DHT22;3625;51.762;14.320;2024-01-15T13:13:34;2.60;99.90
7167;DHT22;3625;51.762;14.320;2024-01-15T13:16:03;2.50;99.90
7167;DHT22;3625;51.762;14.320;2024-01-15T13:18:32;2.40;99.90
7167;DHT22;3625;51.762;14.320;2024-01-15T13:21:01;2.40;99.90
7167;DHT22;3625;51.762;14.320;2024-01-15T13:23:31;2.60;99.90
7167;DHT22;3625;51.762;14.320;2024-01-15T13:26:00;2.70;99.90
7167;DHT22;3625;51.762;14.320;2024-01-15T13:28:28;2.90;99.90
7167;DHT22;3625;51.762;14.320;2024-01-15T13:30:58;3.00;99.90
7167;DHT22;3625;51.762;14.320;2024-01-15T13:33:27;2.90;99.90
7167;DHT22;3625;51.762;14.320;2024-01-15T13:35:56;3.00;99.90
7167;DHT22;3625;51.762;14.320;2024-01-15T13:38:25;2.80;99.90
7167;DHT22;3625;51.762;14.320;2024-01-15T13:40:54;2.90;99.90
7167;DHT22;3625;51.762;14.320;2024-01-15T13:43:23;2.70;99.90
7167;DHT22;3625;51.762;14.320;2024-01-15T13:45:54;2.50;99.90
7167;DHT22;3625;51.762;14.320;2024-01-15T13:48:24;2.50;99.90
7167;DHT22;3625;51.762;14.320;2024-01-15T13:50:53;2.40;99.90
7167;DHT22;3625;51.762;14.320;2024-01-15T13:53:22;2.40;99.90
7167;DHT22;3625;51.762;14.320;2024-01-15T13:55:50;2.20;99.90
7167;DHT22;3625;51.762;14.320;2024-01-15T13:58:19;2.00;99.90
7167;DHT22;3625;51.762;14.320;2024-01-15T14:00:48;2.10;99.90
7167;DHT22;3625;51.762;14.320;2024-01-15T14:03:17;2.10;99.90
7167;DHT22;3625;51.762;14.320;2024-01-15T14:05:48;2.20;99.90
7167;DHT22;3625;51.762;14.320;2024-01-15T14:08:18;2.20;99.90
7167;DHT22;3625;51.762;14.320;2024-01-15T14:10:46;2.10;99.90
7167;DHT22;3625;51.762;14.320;2024-01-15T14:13:15;2.10;99.90
7167;DHT22;3625;51.762;14.320;2024-01-15T14:15:44;2.00;99.90
7167;DHT22;3625;51.762;14.320;2024-01-15T14:18:16;2.00;99.90
7167;DHT22;3625;51.762;14.320;2024-01-15T14:20:50;2.00;99.90
7167;DHT22;3625;51.762;14.320;2024-01-15T14:23:20;2.00;99.90
7167;DHT22;3625;51.762;14.320;2024-01-15T14:25:49;4.20;99.90
7167;DHT22;3625;51.762;14.320;2024-01-15T14:28:17;2.10;99.90
7167;DHT22;3625;51.762;14.320;2024-01-15T14:30:46;2.10;99.90
7167;DHT22;3625;51.762;14.320;2024-01-15T14:33:15;2.00;99.90
7167;DHT22;3625;51.762;14.320;2024-01-15T14:35:46;2.00;99.90
7167;DHT22;3625;51.762;14.320;2024-01-15T14:38:16;2.00;99.90
7167;DHT22;3625;51.762;14.320;2024-01-15T14:40:45;1.90;99.90
7167;DHT22;3625;51.762;14.320;2024-01-15T14:43:13;2.00;99.90
7167;DHT22;3625;51.762;14.320;2024-01-15T14:45:42;1.90;99.90
7167;DHT22;3625;51.762;14.320;2024-01-15T14:48:13;1.90;99.90
7167;DHT22;3625;51.762;14.320;2024-01-15T14:50:41;2.00;99.90
7167;DHT22;3625;51.762;14.320;2024-01-15T14:53:10;1.90;99.90
7167;DHT22;3625;51.762;14.320;2024-01-15T14:55:40;1.90;99.90
7167;DHT22;3625;51.762;14.320;2024-01-15T14:58:08;1.80;99.90
7167;DHT22;3625;51.762;14.320;2024-01-15T15:00:37;1.70;99.90
7167;DHT22;3625;51.762;14.320;2024-01-15T15:03:06;1.70;99.90
7167;DHT22;3625;51.762;14.320;2024-01-15T15:05:35;1.70;99.90
7167;DHT22;3625;51.762;14.320;2024-01-15T15:26:07;1.50;99.90
7167;DHT22;3625;51.762;14.320;2024-01-15T15:31:06;1.40;99.90
7167;DHT22;3625;51.762;14.320;2024-01-15T15:33:39;1.40;99.90
7167;DHT22;3625;51.762;14.320;2024-01-15T15:36:08;1.30;99.90
7167;DHT22;3625;51.762;14.320;2024-01-15T15:41:07;1.30;99.90
7167;DHT22;3625;51.762;14.320;2024-01-15T15:46:05;1.30;99.90
7167;DHT22;3625;51.762;14.320;2024-01-15T15:51:17;1.30;99.90
7167;DHT22;3625;51.762;14.320;2024-01-15T15:53:46;1.20;99.90
7167;DHT22;3625;51.762;14.320;2024-01-15T15:56:21;1.20;99.90
7167;DHT22;3625;51.762;14.320;2024-01-15T15:58:49;1.20;99.90
7167;DHT22;3625;51.762;14.320;2024-01-15T16:01:18;1.20;99.90
7167;DHT22;3625;51.762;14.320;2024-01-15T16:08:46;1.20;99.90
7167;DHT22;3625;51.762;14.320;2024-01-15T16:11:29;1.20;99.90
7167;DHT22;3625;51.762;14.320;2024-01-15T16:13:59;1.30;99.90
7167;DHT22;3625;51.762;14.320;2024-01-15T16:27:32;1.30;99.90
7167;DHT22;3625;51.762;14.320;2024-01-15T16:30:02;1.30;99.90
7167;DHT22;3625;51.762;14.320;2024-01-15T16:35:13;1.40;99.90
7167;DHT22;3625;51.762;14.320;2024-01-15T16:40:13;1.30;99.90
7167;DHT22;3625;51.762;14.320;2024-01-15T16:42:44;1.30;99.90
7167;DHT22;3625;51.762;14.320;2024-01-15T16:52:45;1.20;99.90
7167;DHT22;3625;51.762;14.320;2024-01-15T16:57:46;1.20;99.90
7167;DHT22;3625;51.762;14.320;2024-01-15T17:05:15;1.10;99.90
7167;DHT22;3625;51.762;14.320;2024-01-15T17:10:16;1.10;99.90
7167;DHT22;3625;51.762;14.320;2024-01-15T17:12:50;1.10;99.90
7167;DHT22;3625;51.762;14.320;2024-01-15T17:15:19;1.10;99.90
7167;DHT22;3625;51.762;14.320;2024-01-15T17:17:51;1.10;99.90
7167;DHT22;3625;51.762;14.320;2024-01-15T17:20:25;1.10;99.90
7167;DHT22;3625;51.762;14.320;2024-01-15T17:25:26;1.10;99.90
7167;DHT22;3625;51.762;14.320;2024-01-15T17:27:57;1.20;99.90
7167;DHT22;3625;51.762;14.320;2024-01-15T17:32:56;1.30;99.90
7167;DHT22;3625;51.762;14.320;2024-01-15T17:35:26;1.30;99.90
7167;DHT22;3625;51.762;14.320;2024-01-15T17:47:58;1.30;99.90
7167;DHT22;3625;51.762;14.320;2024-01-15T17:52:57;1.30;99.90
7167;DHT22;3625;51.762;14.320;2024-01-15T17:55:26;1.30;99.90
7167;DHT22;3625;51.762;14.320;2024-01-15T17:57:57;1.30;99.90
7167;DHT22;3625;51.762;14.320;2024-01-15T18:05:25;1.30;99.90
7167;DHT22;3625;51.762;14.320;2024-01-15T18:22:54;1.50;99.90